sensor_id;sensor_type;location;lat;lon;timestamp;temperature;humidity
22787;DHT22;63134;52.020;4.714;2023-07-13T00:01:47;18.90;84.20
22787;DHT22;63134;52.020;4.714;2023-07-13T00:04:37;18.80;84.20
22787;DHT22;63134;52.020;4.714;2023-07-13T00:07:23;18.70;84.30
22787;DHT22;63134;52.020;4.714;2023-07-13T00:10:09;18.70;84.50
22787;DHT22;63134;52.020;4.714;2023-07-13T00:12:57;18.60;86.00
22787;DHT22;63134;52.020;4.714;2023-07-13T00:15:43;18.60;86.50
22787;DHT22;63134;52.020;4.714;2023-07-13T00:18:28;18.50;86.40
22787;DHT22;63134;52.020;4.714;2023-07-13T00:21:15;18.50;86.60
22787;DHT22;63134;52.020;4.714;2023-07-13T00:24:01;18.60;87.50
22787;DHT22;63134;52.020;4.714;2023-07-13T00:26:48;18.60;87.50
22787;DHT22;63134;52.020;4.714;2023-07-13T00:29:33;18.70;87.20
22787;DHT22;63134;52.020;4.714;2023-07-13T00:32:19;18.70;87.30
22787;DHT22;63134;52.020;4.714;2023-07-13T00:35:05;18.80;87.20
22787;DHT22;63134;52.020;4.714;2023-07-13T00:37:51;18.80;87.10
22787;DHT22;63134;52.020;4.714;2023-07-13T00:40:36;18.80;86.80
22787;DHT22;63134;52.020;4.714;2023-07-13T00:43:26;18.80;86.70
22787;DHT22;63134;52.020;4.714;2023-07-13T00:49:04;18.80;86.40
22787;DHT22;63134;52.020;4.714;2023-07-13T00:52:10;18.80;86.10
22787;DHT22;63134;52.020;4.714;2023-07-13T00:54:56;18.70;85.90
22787;DHT22;63134;52.020;4.714;2023-07-13T00:57:42;18.60;86.30
22787;DHT22;63134;52.020;4.714;2023-07-13T01:00:29;18.60;86.40
22787;DHT22;63134;52.020;4.714;2023-07-13T01:03:16;18.50;86.60
22787;DHT22;63134;52.020;4.714;2023-07-13T01:06:01;18.50;86.70
22787;DHT22;63134;52.020;4.714;2023-07-13T01:08:47;18.40;86.60
22787;DHT22;63134;52.020;4.714;2023-07-13T01:11:34;18.30;86.50
22787;DHT22;63134;52.020;4.714;2023-07-13T01:14:20;18.20;86.90
22787;DHT22;63134;52.020;4.714;2023-07-13T01:17:09;18.10;86.80
22787;DHT22;63134;52.020;4.714;2023-07-13T01:19:56;18.00;87.10
22787;DHT22;63134;52.020;4.714;2023-07-13T01:22:42;18.00;87.50
22787;DHT22;63134;52.020;4.714;2023-07-13T01:25:28;17.90;87.60
22787;DHT22;63134;52.020;4.714;2023-07-13T01:28:14;17.90;88.10
22787;DHT22;63134;52.020;4.714;2023-07-13T01:31:08;17.80;88.40
22787;DHT22;63134;52.020;4.714;2023-07-13T01:33:55;17.80;88.90
22787;DHT22;63134;52.020;4.714;2023-07-13T01:36:41;17.80;88.80
22787;DHT22;63134;52.020;4.714;2023-07-13T01:39:27;17.80;89.00
22787;DHT22;63134;52.020;4.714;2023-07-13T01:42:13;17.70;89.10
22787;DHT22;63134;52.020;4.714;2023-07-13T01:44:59;17.70;89.10
22787;DHT22;63134;52.020;4.714;2023-07-13T01:47:48;17.60;89.50
22787;DHT22;63134;52.020;4.714;2023-07-13T01:50:34;17.60;89.90
22787;DHT22;63134;52.020;4.714;2023-07-13T01:53:20;17.60;90.20
22787;DHT22;63134;52.020;4.714;2023-07-13T01:56:05;17.60;90.70
22787;DHT22;63134;52.020;4.714;2023-07-13T01:58:52;17.80;91.10
22787;DHT22;63134;52.020;4.714;2023-07-13T02:01:37;17.90;91.10
22787;DHT22;63134;52.020;4.714;2023-07-13T02:04:23;18.00;91.00
22787;DHT22;63134;52.020;4.714;2023-07-13T02:07:10;18.10;90.80
22787;DHT22;63134;52.020;4.714;2023-07-13T02:09:55;18.10;90.50
22787;DHT22;63134;52.020;4.714;2023-07-13T02:12:42;18.00;90.20
22787;DHT22;63134;52.020;4.714;2023-07-13T02:15:27;17.90;90.10
22787;DHT22;63134;52.020;4.714;2023-07-13T02:18:13;17.80;90.00
22787;DHT22;63134;52.020;4.714;2023-07-13T02:21:05;17.80;90.10
22787;DHT22;63134;52.020;4.714;2023-07-13T02:23:52;17.80;90.10
22787;DHT22;63134;52.020;4.714;2023-07-13T02:26:38;17.70;90.00
22787;DHT22;63134;52.020;4.714;2023-07-13T02:29:23;17.60;89.60
22787;DHT22;63134;52.020;4.714;2023-07-13T02:32:09;17.60;89.30
22787;DHT22;63134;52.020;4.714;2023-07-13T02:34:55;17.50;89.20
22787;DHT22;63134;52.020;4.714;2023-07-13T02:37:44;17.50;89.00
22787;DHT22;63134;52.020;4.714;2023-07-13T02:40:31;17.40;88.80
22787;DHT22;63134;52.020;4.714;2023-07-13T02:43:18;17.40;89.40
22787;DHT22;63134;52.020;4.714;2023-07-13T02:46:05;17.30;90.00
22787;DHT22;63134;52.020;4.714;2023-07-13T02:48:54;17.30;90.10
22787;DHT22;63134;52.020;4.714;2023-07-13T02:51:39;17.30;90.10
22787;DHT22;63134;52.020;4.714;2023-07-13T02:54:26;17.30;90.20
22787;DHT22;63134;52.020;4.714;2023-07-13T02:57:11;17.20;90.20
22787;DHT22;63134;52.020;4.714;2023-07-13T02:59:57;17.20;90.20
22787;DHT22;63134;52.020;4.714;2023-07-13T03:02:43;17.20;90.50
22787;DHT22;63134;52.020;4.714;2023-07-13T03:05:29;17.20;90.60
22787;DHT22;63134;52.020;4.714;2023-07-13T03:08:16;17.10;90.60
22787;DHT22;63134;52.020;4.714;2023-07-13T03:11:08;17.10;90.80
22787;DHT22;63134;52.020;4.714;2023-07-13T03:13:57;17.10;90.90
22787;DHT22;63134;52.020;4.714;2023-07-13T03:16:44;17.00;90.80
22787;DHT22;63134;52.020;4.714;2023-07-13T03:19:30;17.00;90.80
22787;DHT22;63134;52.020;4.714;2023-07-13T03:22:19;17.00;90.90
22787;DHT22;63134;52.020;4.714;2023-07-13T03:25:06;17.00;91.10
22787;DHT22;63134;52.020;4.714;2023-07-13T03:27:52;16.90;91.00
22787;DHT22;63134;52.020;4.714;2023-07-13T03:30:39;16.90;91.10
22787;DHT22;63134;52.020;4.714;2023-07-13T03:33:25;16.90;91.40
22787;DHT22;63134;52.020;4.714;2023-07-13T03:36:18;16.80;91.60
22787;DHT22;63134;52.020;4.714;2023-07-13T03:39:10;16.90;91.70
22787;DHT22;63134;52.020;4.714;2023-07-13T03:42:03;16.90;91.60
22787;DHT22;63134;52.020;4.714;2023-07-13T03:44:50;16.90;91.90
22787;DHT22;63134;52.020;4.714;2023-07-13T03:47:38;16.90;91.80
22787;DHT22;63134;52.020;4.714;2023-07-13T03:50:27;16.80;91.90
22787;DHT22;63134;52.020;4.714;2023-07-13T03:53:12;16.70;92.00
22787;DHT22;63134;52.020;4.714;2023-07-13T03:55:58;16.70;92.40
22787;DHT22;63134;52.020;4.714;2023-07-13T03:58:46;16.70;92.70
22787;DHT22;63134;52.020;4.714;2023-07-13T04:01:35;16.70;93.10
22787;DHT22;63134;52.020;4.714;2023-07-13T04:04:21;16.70;93.30
22787;DHT22;63134;52.020;4.714;2023-07-13T04:07:08;16.70;93.40
22787;DHT22;63134;52.020;4.714;2023-07-13T04:09:56;16.70;93.60
22787;DHT22;63134;52.020;4.714;2023-07-13T04:12:41;16.80;93.80
22787;DHT22;63134;52.020;4.714;2023-07-13T04:15:30;16.80;94.10
22787;DHT22;63134;52.020;4.714;2023-07-13T04:18:16;16.90;94.50
22787;DHT22;63134;52.020;4.714;2023-07-13T04:21:02;16.90;94.80
22787;DHT22;63134;52.020;4.714;2023-07-13T04:23:47;17.00;95.10
22787;DHT22;63134;52.020;4.714;2023-07-13T04:26:33;17.10;95.60
22787;DHT22;63134;52.020;4.714;2023-07-13T04:29:21;17.20;95.60
22787;DHT22;63134;52.020;4.714;2023-07-13T04:32:07;17.30;96.20
22787;DHT22;63134;52.020;4.714;2023-07-13T04:34:53;17.50;96.10
22787;DHT22;63134;52.020;4.714;2023-07-13T04:37:41;17.50;95.50
22787;DHT22;63134;52.020;4.714;2023-07-13T04:40:27;17.50;95.70
22787;DHT22;63134;52.020;4.714;2023-07-13T04:43:13;17.50;96.10
22787;DHT22;63134;52.020;4.714;2023-07-13T04:46:12;17.70;96.90
22787;DHT22;63134;52.020;4.714;2023-07-13T04:48:58;17.80;97.20
22787;DHT22;63134;52.020;4.714;2023-07-13T04:51:44;17.90;97.00
22787;DHT22;63134;52.020;4.714;2023-07-13T04:54:30;18.00;97.30
22787;DHT22;63134;52.020;4.714;2023-07-13T04:57:15;18.10;96.40
22787;DHT22;63134;52.020;4.714;2023-07-13T05:00:01;18.10;95.80
22787;DHT22;63134;52.020;4.714;2023-07-13T05:02:54;18.10;96.00
22787;DHT22;63134;52.020;4.714;2023-07-13T05:05:41;18.10;96.40
22787;DHT22;63134;52.020;4.714;2023-07-13T05:08:26;18.10;96.50
22787;DHT22;63134;52.020;4.714;2023-07-13T05:11:12;18.20;96.50
22787;DHT22;63134;52.020;4.714;2023-07-13T05:13:58;18.20;96.60
22787;DHT22;63134;52.020;4.714;2023-07-13T05:16:44;18.30;96.90
22787;DHT22;63134;52.020;4.714;2023-07-13T05:19:30;18.50;96.80
22787;DHT22;63134;52.020;4.714;2023-07-13T05:22:15;18.60;96.70
22787;DHT22;63134;52.020;4.714;2023-07-13T05:25:07;18.80;96.60
22787;DHT22;63134;52.020;4.714;2023-07-13T05:27:53;18.90;96.20
22787;DHT22;63134;52.020;4.714;2023-07-13T05:30:39;19.00;96.00
22787;DHT22;63134;52.020;4.714;2023-07-13T05:33:25;19.20;95.80
22787;DHT22;63134;52.020;4.714;2023-07-13T05:36:11;19.40;95.20
22787;DHT22;63134;52.020;4.714;2023-07-13T05:38:56;19.80;94.60
22787;DHT22;63134;52.020;4.714;2023-07-13T05:41:42;20.00;93.20
22787;DHT22;63134;52.020;4.714;2023-07-13T05:44:28;20.00;92.40
22787;DHT22;63134;52.020;4.714;2023-07-13T05:47:13;20.00;92.30
22787;DHT22;63134;52.020;4.714;2023-07-13T05:50:00;20.10;92.40
22787;DHT22;63134;52.020;4.714;2023-07-13T05:52:49;20.20;91.90
22787;DHT22;63134;52.020;4.714;2023-07-13T05:55:35;20.20;90.60
22787;DHT22;63134;52.020;4.714;2023-07-13T05:58:21;20.30;90.70
22787;DHT22;63134;52.020;4.714;2023-07-13T06:01:12;20.40;90.30
22787;DHT22;63134;52.020;4.714;2023-07-13T06:03:59;20.40;90.10
22787;DHT22;63134;52.020;4.714;2023-07-13T06:06:44;20.50;90.40
22787;DHT22;63134;52.020;4.714;2023-07-13T06:09:30;20.60;90.50
22787;DHT22;63134;52.020;4.714;2023-07-13T06:12:15;20.60;87.80
22787;DHT22;63134;52.020;4.714;2023-07-13T06:15:01;20.60;88.40
22787;DHT22;63134;52.020;4.714;2023-07-13T06:17:48;20.50;88.30
22787;DHT22;63134;52.020;4.714;2023-07-13T06:20:34;20.40;88.40
22787;DHT22;63134;52.020;4.714;2023-07-13T06:23:20;20.20;85.30
22787;DHT22;63134;52.020;4.714;2023-07-13T06:26:06;20.00;81.30
22787;DHT22;63134;52.020;4.714;2023-07-13T06:28:52;19.80;82.20
22787;DHT22;63134;52.020;4.714;2023-07-13T06:31:38;19.50;79.40
22787;DHT22;63134;52.020;4.714;2023-07-13T06:34:23;19.10;81.80
22787;DHT22;63134;52.020;4.714;2023-07-13T06:37:10;18.90;83.20
22787;DHT22;63134;52.020;4.714;2023-07-13T06:39:56;18.70;85.70
22787;DHT22;63134;52.020;4.714;2023-07-13T06:42:44;18.60;86.40
22787;DHT22;63134;52.020;4.714;2023-07-13T06:45:30;18.60;87.00
22787;DHT22;63134;52.020;4.714;2023-07-13T06:48:23;18.70;87.80
22787;DHT22;63134;52.020;4.714;2023-07-13T06:51:08;18.90;85.90
22787;DHT22;63134;52.020;4.714;2023-07-13T06:53:54;18.90;86.60
22787;DHT22;63134;52.020;4.714;2023-07-13T06:56:41;19.00;83.70
22787;DHT22;63134;52.020;4.714;2023-07-13T06:59:27;18.90;82.70
22787;DHT22;63134;52.020;4.714;2023-07-13T07:02:12;18.90;84.00
22787;DHT22;63134;52.020;4.714;2023-07-13T07:04:58;19.00;83.90
22787;DHT22;63134;52.020;4.714;2023-07-13T07:07:43;19.10;83.40
22787;DHT22;63134;52.020;4.714;2023-07-13T07:10:30;19.10;83.30
22787;DHT22;63134;52.020;4.714;2023-07-13T07:13:16;19.20;83.60
22787;DHT22;63134;52.020;4.714;2023-07-13T07:16:03;19.20;83.90
22787;DHT22;63134;52.020;4.714;2023-07-13T07:18:48;19.30;84.20
22787;DHT22;63134;52.020;4.714;2023-07-13T07:21:34;19.60;84.70
22787;DHT22;63134;52.020;4.714;2023-07-13T07:24:20;19.80;84.10
22787;DHT22;63134;52.020;4.714;2023-07-13T07:27:05;20.00;84.60
22787;DHT22;63134;52.020;4.714;2023-07-13T07:29:54;20.10;84.70
22787;DHT22;63134;52.020;4.714;2023-07-13T07:33:00;20.30;85.00
22787;DHT22;63134;52.020;4.714;2023-07-13T07:35:50;20.70;84.70
22787;DHT22;63134;52.020;4.714;2023-07-13T07:38:39;21.10;83.10
22787;DHT22;63134;52.020;4.714;2023-07-13T07:41:27;21.20;82.90
22787;DHT22;63134;52.020;4.714;2023-07-13T07:44:16;21.30;81.50
22787;DHT22;63134;52.020;4.714;2023-07-13T07:47:02;21.30;80.40
22787;DHT22;63134;52.020;4.714;2023-07-13T07:49:47;21.20;80.90
22787;DHT22;63134;52.020;4.714;2023-07-13T07:52:33;21.10;79.00
22787;DHT22;63134;52.020;4.714;2023-07-13T07:55:18;21.00;78.00
22787;DHT22;63134;52.020;4.714;2023-07-13T07:58:07;20.90;77.20
22787;DHT22;63134;52.020;4.714;2023-07-13T08:01:13;20.80;76.80
22787;DHT22;63134;52.020;4.714;2023-07-13T08:04:02;20.80;77.40
22787;DHT22;63134;52.020;4.714;2023-07-13T08:06:51;21.00;77.10
22787;DHT22;63134;52.020;4.714;2023-07-13T08:09:36;21.10;75.20
22787;DHT22;63134;52.020;4.714;2023-07-13T08:12:22;21.10;74.50
22787;DHT22;63134;52.020;4.714;2023-07-13T08:15:13;21.00;75.20
22787;DHT22;63134;52.020;4.714;2023-07-13T08:18:01;20.90;75.40
22787;DHT22;63134;52.020;4.714;2023-07-13T08:20:48;20.90;75.90
22787;DHT22;63134;52.020;4.714;2023-07-13T08:23:35;21.00;76.10
22787;DHT22;63134;52.020;4.714;2023-07-13T08:26:21;21.10;76.10
22787;DHT22;63134;52.020;4.714;2023-07-13T08:29:07;21.40;75.50
22787;DHT22;63134;52.020;4.714;2023-07-13T08:31:52;21.40;74.90
22787;DHT22;63134;52.020;4.714;2023-07-13T08:34:38;21.50;74.70
22787;DHT22;63134;52.020;4.714;2023-07-13T08:37:28;21.70;75.20
22787;DHT22;63134;52.020;4.714;2023-07-13T08:40:13;22.20;74.70
22787;DHT22;63134;52.020;4.714;2023-07-13T08:42:59;22.70;72.00
22787;DHT22;63134;52.020;4.714;2023-07-13T08:45:51;22.90;69.00
22787;DHT22;63134;52.020;4.714;2023-07-13T08:48:59;22.90;68.20
22787;DHT22;63134;52.020;4.714;2023-07-13T08:52:04;22.80;68.10
22787;DHT22;63134;52.020;4.714;2023-07-13T08:55:03;22.40;68.20
22787;DHT22;63134;52.020;4.714;2023-07-13T08:58:06;22.00;69.10
22787;DHT22;63134;52.020;4.714;2023-07-13T09:01:02;21.50;68.70
22787;DHT22;63134;52.020;4.714;2023-07-13T09:04:12;20.70;71.00
22787;DHT22;63134;52.020;4.714;2023-07-13T09:10:28;20.00;77.20
22787;DHT22;63134;52.020;4.714;2023-07-13T09:13:30;19.90;78.90
22787;DHT22;63134;52.020;4.714;2023-07-13T09:16:19;20.00;79.00
22787;DHT22;63134;52.020;4.714;2023-07-13T09:19:11;20.00;80.30
22787;DHT22;63134;52.020;4.714;2023-07-13T09:21:59;20.10;80.40
22787;DHT22;63134;52.020;4.714;2023-07-13T09:24:54;20.40;81.00
22787;DHT22;63134;52.020;4.714;2023-07-13T09:27:43;20.60;81.10
22787;DHT22;63134;52.020;4.714;2023-07-13T09:30:38;20.80;81.20
22787;DHT22;63134;52.020;4.714;2023-07-13T09:33:25;21.00;80.30
22787;DHT22;63134;52.020;4.714;2023-07-13T09:36:34;20.70;80.00
22787;DHT22;63134;52.020;4.714;2023-07-13T09:39:33;20.40;80.90
22787;DHT22;63134;52.020;4.714;2023-07-13T09:42:22;20.10;80.80
22787;DHT22;63134;52.020;4.714;2023-07-13T09:45:08;20.10;81.40
22787;DHT22;63134;52.020;4.714;2023-07-13T09:48:06;20.30;83.60
22787;DHT22;63134;52.020;4.714;2023-07-13T09:51:06;20.20;79.80
22787;DHT22;63134;52.020;4.714;2023-07-13T09:53:53;20.20;79.20
22787;DHT22;63134;52.020;4.714;2023-07-13T09:56:39;20.30;79.20
22787;DHT22;63134;52.020;4.714;2023-07-13T09:59:35;20.40;78.30
22787;DHT22;63134;52.020;4.714;2023-07-13T10:02:31;20.40;78.00
22787;DHT22;63134;52.020;4.714;2023-07-13T10:05:20;20.50;78.70
22787;DHT22;63134;52.020;4.714;2023-07-13T10:08:39;20.60;78.60
22787;DHT22;63134;52.020;4.714;2023-07-13T10:11:29;20.60;78.60
22787;DHT22;63134;52.020;4.714;2023-07-13T10:14:18;20.50;79.20
22787;DHT22;63134;52.020;4.714;2023-07-13T10:17:09;20.40;81.30
22787;DHT22;63134;52.020;4.714;2023-07-13T10:19:55;20.90;80.10
22787;DHT22;63134;52.020;4.714;2023-07-13T10:22:57;21.20;78.60
22787;DHT22;63134;52.020;4.714;2023-07-13T10:25:46;21.60;77.90
22787;DHT22;63134;52.020;4.714;2023-07-13T10:28:37;21.80;75.70
22787;DHT22;63134;52.020;4.714;2023-07-13T10:31:24;22.00;75.30
22787;DHT22;63134;52.020;4.714;2023-07-13T10:34:10;22.20;73.50
22787;DHT22;63134;52.020;4.714;2023-07-13T10:36:58;22.40;72.90
22787;DHT22;63134;52.020;4.714;2023-07-13T10:39:44;22.60;72.10
22787;DHT22;63134;52.020;4.714;2023-07-13T10:42:35;23.00;72.20
22787;DHT22;63134;52.020;4.714;2023-07-13T10:45:23;23.30;71.30
22787;DHT22;63134;52.020;4.714;2023-07-13T10:48:13;23.40;68.40
22787;DHT22;63134;52.020;4.714;2023-07-13T10:51:01;23.10;68.30
22787;DHT22;63134;52.020;4.714;2023-07-13T10:54:14;22.90;68.20
22787;DHT22;63134;52.020;4.714;2023-07-13T11:00:14;22.40;68.40
22787;DHT22;63134;52.020;4.714;2023-07-13T11:03:03;22.30;67.00
22787;DHT22;63134;52.020;4.714;2023-07-13T11:05:51;22.40;66.00
22787;DHT22;63134;52.020;4.714;2023-07-13T11:11:36;22.90;61.90
22787;DHT22;63134;52.020;4.714;2023-07-13T11:15:15;23.00;61.40
22787;DHT22;63134;52.020;4.714;2023-07-13T11:20:36;23.90;59.60
22787;DHT22;63134;52.020;4.714;2023-07-13T11:23:30;24.20;57.90
22787;DHT22;63134;52.020;4.714;2023-07-13T11:29:44;24.00;56.50
22787;DHT22;63134;52.020;4.714;2023-07-13T11:32:31;24.30;56.50
22787;DHT22;63134;52.020;4.714;2023-07-13T11:35:23;24.70;55.00
22787;DHT22;63134;52.020;4.714;2023-07-13T11:38:18;25.00;54.90
22787;DHT22;63134;52.020;4.714;2023-07-13T11:44:16;25.50;53.20
22787;DHT22;63134;52.020;4.714;2023-07-13T11:47:16;26.10;51.50
22787;DHT22;63134;52.020;4.714;2023-07-13T11:50:02;26.60;50.30
22787;DHT22;63134;52.020;4.714;2023-07-13T11:52:50;27.10;48.20
22787;DHT22;63134;52.020;4.714;2023-07-13T11:55:39;26.80;47.50
22787;DHT22;63134;52.020;4.714;2023-07-13T11:58:26;27.20;47.30
22787;DHT22;63134;52.020;4.714;2023-07-13T12:01:41;27.80;47.00
22787;DHT22;63134;52.020;4.714;2023-07-13T12:04:32;28.30;45.30
22787;DHT22;63134;52.020;4.714;2023-07-13T12:07:19;28.70;44.70
22787;DHT22;63134;52.020;4.714;2023-07-13T12:13:05;28.80;43.90
22787;DHT22;63134;52.020;4.714;2023-07-13T12:15:56;29.40;41.70
22787;DHT22;63134;52.020;4.714;2023-07-13T12:18:43;29.80;42.00
22787;DHT22;63134;52.020;4.714;2023-07-13T12:21:36;30.30;40.80
22787;DHT22;63134;52.020;4.714;2023-07-13T12:24:23;30.80;40.60
22787;DHT22;63134;52.020;4.714;2023-07-13T12:27:24;31.50;39.10
22787;DHT22;63134;52.020;4.714;2023-07-13T12:33:12;32.60;35.60
22787;DHT22;63134;52.020;4.714;2023-07-13T12:36:01;32.60;34.40
22787;DHT22;63134;52.020;4.714;2023-07-13T12:38:47;33.00;35.20
22787;DHT22;63134;52.020;4.714;2023-07-13T12:41:33;33.50;34.70
22787;DHT22;63134;52.020;4.714;2023-07-13T12:44:29;33.80;34.00
22787;DHT22;63134;52.020;4.714;2023-07-13T12:47:15;33.80;33.40
22787;DHT22;63134;52.020;4.714;2023-07-13T12:50:03;34.00;33.10
22787;DHT22;63134;52.020;4.714;2023-07-13T12:52:53;34.00;33.20
22787;DHT22;63134;52.020;4.714;2023-07-13T12:55:49;34.60;32.70
22787;DHT22;63134;52.020;4.714;2023-07-13T12:58:40;35.30;31.50
22787;DHT22;63134;52.020;4.714;2023-07-13T13:01:34;35.60;30.80
22787;DHT22;63134;52.020;4.714;2023-07-13T13:04:23;35.70;30.00
22787;DHT22;63134;52.020;4.714;2023-07-13T13:07:12;35.70;29.50
22787;DHT22;63134;52.020;4.714;2023-07-13T13:09:58;35.80;30.00
22787;DHT22;63134;52.020;4.714;2023-07-13T13:12:43;36.10;29.70
22787;DHT22;63134;52.020;4.714;2023-07-13T13:15:33;36.10;29.60
22787;DHT22;63134;52.020;4.714;2023-07-13T13:18:22;36.20;29.40
22787;DHT22;63134;52.020;4.714;2023-07-13T13:21:09;36.70;29.60
22787;DHT22;63134;52.020;4.714;2023-07-13T13:23:55;37.10;29.10
22787;DHT22;63134;52.020;4.714;2023-07-13T13:26:41;37.70;28.40
22787;DHT22;63134;52.020;4.714;2023-07-13T13:29:27;37.40;28.00
22787;DHT22;63134;52.020;4.714;2023-07-13T13:32:14;36.40;28.90
22787;DHT22;63134;52.020;4.714;2023-07-13T13:35:00;36.70;28.80
22787;DHT22;63134;52.020;4.714;2023-07-13T13:37:47;37.30;28.10
22787;DHT22;63134;52.020;4.714;2023-07-13T13:40:36;37.30;28.30
22787;DHT22;63134;52.020;4.714;2023-07-13T13:43:26;37.60;27.60
22787;DHT22;63134;52.020;4.714;2023-07-13T13:46:20;37.60;27.20
22787;DHT22;63134;52.020;4.714;2023-07-13T13:49:19;37.50;27.30
22787;DHT22;63134;52.020;4.714;2023-07-13T13:52:05;37.40;27.40
22787;DHT22;63134;52.020;4.714;2023-07-13T13:54:51;37.70;27.10
22787;DHT22;63134;52.020;4.714;2023-07-13T13:57:41;37.90;26.90
22787;DHT22;63134;52.020;4.714;2023-07-13T14:00:26;38.20;26.70
22787;DHT22;63134;52.020;4.714;2023-07-13T14:03:17;38.30;26.40
22787;DHT22;63134;52.020;4.714;2023-07-13T14:06:03;38.70;26.40
22787;DHT22;63134;52.020;4.714;2023-07-13T14:08:49;39.40;25.70
22787;DHT22;63134;52.020;4.714;2023-07-13T14:11:35;39.30;25.60
22787;DHT22;63134;52.020;4.714;2023-07-13T14:14:22;38.90;25.50
22787;DHT22;63134;52.020;4.714;2023-07-13T14:17:24;39.10;25.40
22787;DHT22;63134;52.020;4.714;2023-07-13T14:20:11;39.10;25.40
22787;DHT22;63134;52.020;4.714;2023-07-13T14:22:57;38.50;26.00
22787;DHT22;63134;52.020;4.714;2023-07-13T14:25:44;38.50;26.30
22787;DHT22;63134;52.020;4.714;2023-07-13T14:28:30;38.60;25.90
22787;DHT22;63134;52.020;4.714;2023-07-13T14:31:17;39.00;25.80
22787;DHT22;63134;52.020;4.714;2023-07-13T14:34:05;39.00;25.70
22787;DHT22;63134;52.020;4.714;2023-07-13T14:36:50;38.40;26.10
22787;DHT22;63134;52.020;4.714;2023-07-13T14:39:36;38.00;26.90
22787;DHT22;63134;52.020;4.714;2023-07-13T14:42:23;38.20;27.20
22787;DHT22;63134;52.020;4.714;2023-07-13T14:45:17;36.90;27.60
22787;DHT22;63134;52.020;4.714;2023-07-13T14:48:02;34.80;29.20
22787;DHT22;63134;52.020;4.714;2023-07-13T14:50:54;33.50;31.30
22787;DHT22;63134;52.020;4.714;2023-07-13T14:53:41;33.20;32.00
22787;DHT22;63134;52.020;4.714;2023-07-13T14:56:27;32.60;32.60
22787;DHT22;63134;52.020;4.714;2023-07-13T14:59:13;32.10;33.80
22787;DHT22;63134;52.020;4.714;2023-07-13T15:01:59;32.10;34.30
22787;DHT22;63134;52.020;4.714;2023-07-13T15:04:45;32.20;35.10
22787;DHT22;63134;52.020;4.714;2023-07-13T15:07:31;32.60;34.10
22787;DHT22;63134;52.020;4.714;2023-07-13T15:13:16;35.20;30.70
22787;DHT22;63134;52.020;4.714;2023-07-13T15:16:01;34.70;31.70
22787;DHT22;63134;52.020;4.714;2023-07-13T15:18:47;34.60;31.20
22787;DHT22;63134;52.020;4.714;2023-07-13T15:21:33;35.70;30.40
22787;DHT22;63134;52.020;4.714;2023-07-13T15:24:20;36.50;29.80
22787;DHT22;63134;52.020;4.714;2023-07-13T15:27:11;37.10;28.40
22787;DHT22;63134;52.020;4.714;2023-07-13T15:29:57;37.30;28.60
22787;DHT22;63134;52.020;4.714;2023-07-13T15:32:44;37.90;28.20
22787;DHT22;63134;52.020;4.714;2023-07-13T15:35:29;38.50;27.30
22787;DHT22;63134;52.020;4.714;2023-07-13T15:38:18;38.70;26.60
22787;DHT22;63134;52.020;4.714;2023-07-13T15:44:25;37.80;27.70
22787;DHT22;63134;52.020;4.714;2023-07-13T15:47:12;38.40;27.60
22787;DHT22;63134;52.020;4.714;2023-07-13T15:49:59;38.70;27.40
22787;DHT22;63134;52.020;4.714;2023-07-13T15:52:49;38.90;27.20
22787;DHT22;63134;52.020;4.714;2023-07-13T15:55:39;39.00;26.90
22787;DHT22;63134;52.020;4.714;2023-07-13T15:58:28;38.90;26.60
22787;DHT22;63134;52.020;4.714;2023-07-13T16:01:14;38.70;27.00
22787;DHT22;63134;52.020;4.714;2023-07-13T16:04:00;38.70;27.20
22787;DHT22;63134;52.020;4.714;2023-07-13T16:06:47;38.60;26.90
22787;DHT22;63134;52.020;4.714;2023-07-13T16:09:32;38.50;26.80
22787;DHT22;63134;52.020;4.714;2023-07-13T16:12:18;38.50;27.10
22787;DHT22;63134;52.020;4.714;2023-07-13T16:15:08;38.30;27.00
22787;DHT22;63134;52.020;4.714;2023-07-13T16:17:57;38.30;27.10
22787;DHT22;63134;52.020;4.714;2023-07-13T16:20:44;38.40;26.80
22787;DHT22;63134;52.020;4.714;2023-07-13T16:23:31;38.40;26.80
22787;DHT22;63134;52.020;4.714;2023-07-13T16:26:37;38.20;26.50
22787;DHT22;63134;52.020;4.714;2023-07-13T16:29:30;37.10;27.30
22787;DHT22;63134;52.020;4.714;2023-07-13T16:32:16;36.80;28.20
22787;DHT22;63134;52.020;4.714;2023-07-13T16:35:01;36.90;28.60
22787;DHT22;63134;52.020;4.714;2023-07-13T16:37:47;37.00;28.50
22787;DHT22;63134;52.020;4.714;2023-07-13T16:40:47;37.10;28.80
22787;DHT22;63134;52.020;4.714;2023-07-13T16:43:33;37.20;29.00
22787;DHT22;63134;52.020;4.714;2023-07-13T16:46:22;37.20;28.60
22787;DHT22;63134;52.020;4.714;2023-07-13T16:49:29;36.90;28.40
22787;DHT22;63134;52.020;4.714;2023-07-13T16:52:17;36.70;28.60
22787;DHT22;63134;52.020;4.714;2023-07-13T16:55:10;36.30;28.80
22787;DHT22;63134;52.020;4.714;2023-07-13T16:57:58;35.30;29.30
22787;DHT22;63134;52.020;4.714;2023-07-13T17:00:46;34.20;30.80
22787;DHT22;63134;52.020;4.714;2023-07-13T17:03:33;34.30;31.10
22787;DHT22;63134;52.020;4.714;2023-07-13T17:06:23;34.00;31.90
22787;DHT22;63134;52.020;4.714;2023-07-13T17:09:11;34.60;31.80
22787;DHT22;63134;52.020;4.714;2023-07-13T17:11:58;35.00;31.30
22787;DHT22;63134;52.020;4.714;2023-07-13T17:14:44;35.40;30.40
22787;DHT22;63134;52.020;4.714;2023-07-13T17:17:34;35.50;30.10
22787;DHT22;63134;52.020;4.714;2023-07-13T17:20:31;35.40;30.00
22787;DHT22;63134;52.020;4.714;2023-07-13T17:23:25;35.40;30.20
22787;DHT22;63134;52.020;4.714;2023-07-13T17:26:10;33.60;31.30
22787;DHT22;63134;52.020;4.714;2023-07-13T17:28:56;32.50;33.70
22787;DHT22;63134;52.020;4.714;2023-07-13T17:31:43;32.90;34.20
22787;DHT22;63134;52.020;4.714;2023-07-13T17:34:30;33.80;33.10
22787;DHT22;63134;52.020;4.714;2023-07-13T17:37:17;34.20;32.50
22787;DHT22;63134;52.020;4.714;2023-07-13T17:40:12;34.60;32.00
22787;DHT22;63134;52.020;4.714;2023-07-13T17:43:00;34.90;31.10
22787;DHT22;63134;52.020;4.714;2023-07-13T17:45:46;35.10;31.00
22787;DHT22;63134;52.020;4.714;2023-07-13T17:48:32;35.50;30.70
22787;DHT22;63134;52.020;4.714;2023-07-13T17:51:18;34.50;30.90
22787;DHT22;63134;52.020;4.714;2023-07-13T17:54:14;34.00;31.80
22787;DHT22;63134;52.020;4.714;2023-07-13T17:57:00;33.60;32.00
22787;DHT22;63134;52.020;4.714;2023-07-13T17:59:46;32.40;33.10
22787;DHT22;63134;52.020;4.714;2023-07-13T18:02:32;31.10;35.10
22787;DHT22;63134;52.020;4.714;2023-07-13T18:05:17;31.10;36.50
22787;DHT22;63134;52.020;4.714;2023-07-13T18:08:04;31.60;36.00
22787;DHT22;63134;52.020;4.714;2023-07-13T18:10:56;31.80;35.40
22787;DHT22;63134;52.020;4.714;2023-07-13T18:13:45;31.70;35.50
22787;DHT22;63134;52.020;4.714;2023-07-13T18:16:31;31.50;36.00
22787;DHT22;63134;52.020;4.714;2023-07-13T18:19:30;31.30;36.10